createdAt,value
2022-11-02T00:02:00.732Z,11.13
2022-11-02T00:04:28.808Z,12.07
2022-11-02T00:06:56.706Z,10.57
2022-11-02T00:09:24.592Z,10.50
2022-11-02T00:11:52.882Z,13.23
2022-11-02T00:14:22.283Z,8.70
2022-11-02T00:16:50.459Z,9.67
2022-11-02T00:19:18.830Z,9.77
2022-11-02T00:21:50.181Z,12.30
2022-11-02T00:24:18.300Z,8.10
2022-11-02T00:26:46.605Z,16.23
2022-11-02T00:29:14.581Z,9.47
2022-11-02T00:31:43.938Z,12.03
2022-11-02T00:34:12.084Z,8.63
2022-11-02T00:36:40.087Z,14.27
2022-11-02T00:39:08.024Z,9.77
2022-11-02T00:41:36.002Z,9.20
2022-11-02T00:44:04.026Z,11.37
2022-11-02T00:46:34.973Z,12.13
2022-11-02T00:49:04.323Z,10.50
2022-11-02T00:51:32.274Z,12.77
2022-11-02T00:54:02.098Z,10.77
2022-11-02T00:56:30.066Z,11.13
2022-11-02T00:58:58.172Z,9.40
2022-11-02T01:01:26.206Z,8.83
2022-11-02T01:03:56.745Z,8.47
2022-11-02T01:06:27.335Z,8.73
2022-11-02T01:08:55.657Z,13.90
2022-11-02T01:11:27.630Z,10.40
2022-11-02T01:13:55.545Z,9.43
2022-11-02T01:16:23.708Z,10.00
2022-11-02T01:18:54.287Z,15.27
2022-11-02T01:21:22.533Z,9.60
2022-11-02T01:23:55.165Z,9.50
2022-11-02T01:26:23.107Z,8.67
2022-11-02T01:28:55.085Z,10.47
2022-11-02T01:31:23.112Z,8.60
2022-11-02T01:33:51.415Z,12.53
2022-11-02T01:38:55.823Z,11.33
2022-11-02T01:41:24.212Z,12.27
2022-11-02T01:43:55.370Z,7.93
2022-11-02T01:46:26.209Z,9.90
2022-11-02T01:48:58.224Z,8.60
2022-11-02T01:51:32.309Z,12.73
2022-11-02T01:54:06.767Z,8.80
2022-11-02T01:56:36.769Z,15.70
2022-11-02T01:59:11.399Z,10.00
2022-11-02T02:01:39.758Z,8.67
2022-11-02T02:04:07.930Z,8.03
2022-11-02T02:06:36.079Z,11.03
2022-11-02T02:09:06.719Z,11.33
2022-11-02T02:11:36.314Z,13.17
2022-11-02T02:14:07.488Z,11.57
2022-11-02T02:17:00.909Z,8.50
2022-11-02T02:19:36.082Z,8.03
2022-11-02T02:22:20.668Z,9.80
2022-11-02T02:25:02.553Z,13.23
2022-11-02T02:27:44.141Z,10.40
2022-11-02T02:30:13.149Z,12.87
2022-11-02T02:32:50.183Z,8.60
2022-11-02T02:35:26.607Z,9.50
2022-11-02T02:37:58.690Z,8.63
2022-11-02T02:40:31.754Z,8.40
2022-11-02T02:43:07.934Z,8.97
2022-11-02T02:45:39.265Z,12.53
2022-11-02T02:48:15.458Z,14.87
2022-11-02T02:50:48.677Z,14.03
2022-11-02T02:53:20.224Z,10.10
2022-11-02T02:55:50.781Z,11.13
2022-11-02T02:58:23.783Z,11.50
2022-11-02T03:00:52.997Z,10.27
2022-11-02T03:03:24.639Z,14.50
2022-11-02T03:06:16.174Z,9.07
2022-11-02T03:08:49.594Z,10.60
2022-11-02T03:11:20.216Z,14.03
2022-11-02T03:14:04.210Z,9.37
2022-11-02T03:16:44.165Z,11.50
2022-11-02T03:19:21.941Z,12.40
2022-11-02T03:21:56.500Z,10.83
2022-11-02T03:24:30.250Z,10.03
2022-11-02T03:27:19.152Z,11.57
2022-11-02T03:29:54.519Z,9.47
2022-11-02T03:32:27.384Z,11.70
2022-11-02T03:34:59.132Z,8.90
2022-11-02T03:37:30.707Z,9.73
2022-11-02T03:40:06.895Z,12.90
2022-11-02T03:42:58.655Z,8.13
2022-11-02T03:45:32.410Z,11.43
2022-11-02T03:48:04.350Z,9.97
2022-11-02T03:50:35.769Z,10.83
2022-11-02T03:53:12.327Z,11.43
2022-11-02T03:55:46.901Z,10.67
2022-11-02T03:58:14.840Z,10.50
2022-11-02T04:00:51.017Z,9.87
2022-11-02T04:03:21.722Z,12.23
2022-11-02T04:05:49.786Z,11.37
2022-11-02T04:08:24.409Z,9.87
2022-11-02T04:11:11.296Z,9.83
2022-11-02T04:13:56.843Z,12.67
2022-11-02T04:16:28.162Z,10.83
2022-11-02T04:19:17.421Z,8.53
2022-11-02T04:22:06.044Z,11.80
2022-11-02T04:24:53.597Z,11.30
2022-11-02T04:27:21.608Z,9.20
2022-11-02T04:29:49.997Z,8.83
2022-11-02T04:32:35.919Z,11.70
2022-11-02T04:35:04.051Z,12.93
2022-11-02T04:37:49.744Z,7.70
2022-11-02T04:40:17.775Z,8.67
2022-11-02T04:42:47.987Z,9.13
2022-11-02T04:45:16.017Z,10.57
2022-11-02T04:47:45.277Z,7.77
2022-11-02T04:50:16.280Z,10.33
2022-11-02T04:52:47.166Z,9.87
2022-11-02T04:55:15.134Z,9.50
2022-11-02T04:57:46.457Z,13.93
2022-11-02T05:00:16.914Z,10.77
2022-11-02T05:02:47.885Z,11.53
2022-11-02T05:05:16.062Z,11.33
2022-11-02T05:07:44.203Z,11.63
2022-11-02T05:10:15.291Z,13.00
2022-11-02T05:12:46.078Z,11.10
2022-11-02T05:15:14.039Z,14.13
2022-11-02T05:17:41.945Z,16.60
2022-11-02T05:20:11.937Z,11.87
2022-11-02T05:22:43.402Z,8.70
2022-11-02T05:25:11.595Z,13.17
2022-11-02T05:27:39.959Z,12.07
2022-11-02T05:30:08.556Z,14.47
2022-11-02T05:32:36.788Z,14.47
2022-11-02T05:35:05.317Z,12.10
2022-11-02T05:37:34.757Z,19.00
2022-11-02T05:40:02.743Z,12.43
2022-11-02T05:42:30.663Z,9.80
2022-11-02T05:44:59.206Z,14.23
2022-11-02T05:47:28.746Z,11.70
2022-11-02T05:49:56.668Z,8.80
2022-11-02T05:52:24.877Z,17.50
2022-11-02T05:54:56.468Z,14.23
2022-11-02T05:57:24.634Z,16.90
2022-11-02T05:59:52.603Z,13.73
2022-11-02T06:02:23.279Z,9.10
2022-11-02T06:04:54.198Z,12.93
2022-11-02T06:07:23.541Z,7.97
2022-11-02T06:09:54.470Z,7.93
2022-11-02T06:12:22.608Z,16.30
2022-11-02T06:14:50.625Z,9.63
2022-11-02T06:17:18.606Z,11.77
2022-11-02T06:19:47.346Z,12.53
2022-11-02T06:22:15.547Z,10.10
2022-11-02T06:24:43.543Z,10.23
2022-11-02T06:27:15.298Z,11.40
2022-11-02T06:29:43.215Z,11.63
2022-11-02T06:32:11.298Z,9.50
2022-11-02T06:37:05.065Z,9.67
2022-11-02T06:42:08.588Z,11.73
2022-11-02T06:44:42.058Z,11.97
2022-11-02T06:47:10.063Z,11.47
2022-11-02T06:49:37.976Z,8.30
2022-11-02T06:52:06.174Z,16.80
2022-11-02T06:54:34.108Z,12.53
2022-11-02T06:57:02.130Z,8.13
2022-11-02T06:59:30.075Z,11.63
2022-11-02T07:02:02.426Z,10.17
2022-11-02T07:04:33.595Z,14.63
2022-11-02T07:07:01.462Z,11.80
2022-11-02T07:09:29.594Z,15.33
2022-11-02T07:11:57.684Z,13.70
2022-11-02T07:14:26.072Z,13.37
2022-11-02T07:16:54.047Z,12.10
2022-11-02T07:19:23.356Z,13.20
2022-11-02T07:21:51.462Z,11.97
2022-11-02T07:24:19.442Z,9.83
2022-11-02T07:26:51.280Z,11.63
2022-11-02T07:29:19.974Z,14.07
2022-11-02T07:31:48.590Z,9.40
2022-11-02T07:34:17.330Z,13.00
2022-11-02T07:36:47.197Z,9.87
2022-11-02T07:39:15.208Z,14.23
2022-11-02T07:41:46.706Z,15.87
2022-11-02T07:44:17.263Z,15.97
2022-11-02T07:46:45.262Z,11.30
2022-11-02T07:49:17.351Z,15.60
2022-11-02T07:51:49.852Z,19.33
2022-11-02T07:54:18.498Z,21.13
2022-11-02T07:56:46.602Z,20.37
2022-11-02T07:59:14.612Z,16.20
2022-11-02T08:01:42.587Z,19.07
2022-11-02T08:04:13.763Z,19.60
2022-11-02T08:06:43.372Z,12.23
2022-11-02T08:09:19.685Z,14.40
2022-11-02T08:11:48.054Z,17.23
2022-11-02T08:14:16.347Z,11.87
2022-11-02T08:16:44.390Z,10.17
2022-11-02T08:19:12.293Z,11.83
2022-11-02T08:21:40.202Z,13.17
2022-11-02T08:24:09.043Z,16.77
2022-11-02T08:26:41.013Z,14.87
2022-11-02T08:29:12.247Z,12.73
2022-11-02T08:31:40.323Z,13.83
2022-11-02T08:34:08.400Z,10.93
2022-11-02T08:36:36.890Z,13.30
2022-11-02T08:39:05.166Z,7.53
2022-11-02T08:41:33.106Z,9.73
2022-11-02T08:44:02.464Z,9.50
2022-11-02T08:46:31.238Z,9.83
2022-11-02T08:48:59.203Z,8.60
2022-11-02T08:51:27.115Z,12.27
2022-11-02T08:53:57.942Z,12.10
2022-11-02T08:56:25.958Z,11.17
2022-11-02T08:58:53.890Z,10.77
2022-11-02T09:01:23.225Z,12.10
2022-11-02T09:03:51.343Z,15.97
2022-11-02T09:06:19.650Z,16.30
2022-11-02T09:08:48.827Z,15.87
2022-11-02T09:11:17.312Z,12.67
2022-11-02T09:13:45.208Z,11.20
2022-11-02T09:16:13.190Z,8.10
2022-11-02T09:18:42.474Z,12.47
2022-11-02T09:21:10.347Z,14.07
2022-11-02T09:23:38.319Z,11.07
2022-11-02T09:26:08.261Z,7.57
2022-11-02T09:28:36.647Z,12.67
2022-11-02T09:31:07.496Z,15.90
2022-11-02T09:33:38.735Z,12.47
2022-11-02T09:36:08.798Z,12.27
2022-11-02T09:38:38.681Z,15.50
2022-11-02T09:41:15.319Z,11.47
2022-11-02T09:43:57.907Z,9.67
2022-11-02T09:46:28.871Z,13.00
2022-11-02T09:49:02.465Z,16.90
2022-11-02T09:51:36.627Z,16.77
2022-11-02T09:54:17.284Z,13.83
2022-11-02T09:56:46.937Z,11.37
2022-11-02T09:59:17.219Z,10.30
2022-11-02T10:02:03.775Z,16.47
2022-11-02T10:04:54.751Z,11.63
2022-11-02T10:07:33.304Z,11.23
2022-11-02T10:10:05.999Z,10.13
2022-11-02T10:12:44.244Z,17.63
2022-11-02T10:15:17.498Z,7.00
2022-11-02T10:17:48.907Z,8.70
2022-11-02T10:20:25.904Z,9.07
2022-11-02T10:22:59.636Z,10.90
2022-11-02T10:25:27.877Z,14.33
2022-11-02T10:28:04.414Z,8.07
2022-11-02T10:30:33.812Z,9.20
2022-11-02T10:33:03.916Z,8.57
2022-11-02T10:35:57.751Z,11.60
2022-11-02T10:38:43.083Z,11.67
2022-11-02T10:41:30.149Z,10.77
2022-11-02T10:44:13.557Z,7.97
2022-11-02T10:46:57.371Z,11.47
2022-11-02T10:49:45.847Z,11.03
2022-11-02T10:52:16.880Z,12.40
2022-11-02T10:54:51.232Z,7.63
2022-11-02T10:57:25.289Z,7.53
2022-11-02T11:00:29.403Z,10.83
2022-11-02T11:03:12.081Z,7.70
2022-11-02T11:05:57.128Z,9.13
2022-11-02T11:08:37.135Z,11.47
2022-11-02T11:11:23.603Z,13.67
2022-11-02T11:16:50.766Z,11.27
2022-11-02T11:19:41.382Z,8.83
2022-11-02T11:22:26.570Z,11.27
2022-11-02T11:25:28.414Z,7.30
2022-11-02T11:27:59.701Z,10.10
2022-11-02T11:33:22.924Z,12.80
2022-11-02T11:35:51.969Z,10.80
2022-11-02T11:38:21.756Z,17.20
2022-11-02T11:40:54.328Z,11.80
2022-11-02T11:43:26.434Z,5.80
2022-11-02T11:46:03.993Z,9.67
2022-11-02T11:48:39.020Z,13.60
2022-11-02T11:51:30.803Z,13.00
2022-11-02T11:54:26.965Z,5.77
2022-11-02T11:56:57.224Z,8.47
2022-11-02T11:59:46.449Z,9.50
2022-11-02T12:02:24.481Z,13.80
2022-11-02T12:04:53.275Z,12.03
2022-11-02T12:07:55.961Z,12.63
2022-11-02T12:10:35.556Z,10.47
2022-11-02T12:13:10.884Z,9.37
2022-11-02T12:15:57.651Z,8.40
2022-11-02T12:18:41.007Z,8.73
2022-11-02T12:21:23.069Z,9.77
2022-11-02T12:24:08.114Z,10.93
2022-11-02T12:26:51.642Z,10.00
2022-11-02T12:29:42.826Z,9.57
2022-11-02T12:32:25.798Z,8.57
2022-11-02T12:35:27.951Z,8.03
2022-11-02T12:38:10.822Z,9.03
2022-11-02T12:40:49.897Z,12.93
2022-11-02T12:43:31.999Z,9.23
2022-11-02T12:46:04.458Z,10.47
2022-11-02T12:48:44.183Z,6.27
2022-11-02T12:51:17.543Z,9.87
2022-11-02T12:53:50.101Z,8.20
2022-11-02T12:56:24.400Z,7.57
2022-11-02T12:58:52.976Z,11.23
2022-11-02T13:01:28.241Z,8.07
2022-11-02T13:04:03.174Z,10.13
2022-11-02T13:06:35.169Z,7.30
2022-11-02T13:09:08.661Z,11.53
2022-11-02T13:11:40.931Z,8.73
2022-11-02T13:14:15.764Z,10.87
2022-11-02T13:16:50.571Z,12.50
2022-11-02T13:19:23.051Z,9.47
2022-11-02T13:21:55.937Z,9.37
2022-11-02T13:24:31.719Z,7.60
2022-11-02T13:27:14.389Z,10.20
2022-11-02T13:29:51.999Z,11.67
2022-11-02T13:32:33.592Z,7.77
2022-11-02T13:35:13.792Z,6.47
2022-11-02T13:37:45.189Z,7.83
2022-11-02T13:40:19.767Z,9.87
2022-11-02T13:43:31.100Z,7.57
2022-11-02T13:46:11.985Z,9.57
2022-11-02T13:49:00.698Z,7.90
2022-11-02T13:51:37.522Z,7.00
2022-11-02T13:54:13.154Z,6.77
2022-11-02T13:56:43.463Z,5.43
2022-11-02T13:59:21.615Z,7.07
2022-11-02T14:01:52.442Z,7.03
2022-11-02T14:04:21.794Z,6.53
2022-11-02T14:06:56.206Z,8.83
2022-11-02T14:09:37.486Z,7.50
2022-11-02T14:12:30.746Z,9.10
2022-11-02T14:15:47.677Z,6.03
2022-11-02T14:18:30.020Z,4.90
2022-11-02T14:20:59.002Z,7.03
2022-11-02T14:23:52.378Z,5.27
2022-11-02T14:26:34.431Z,11.03
2022-11-02T14:29:29.921Z,6.50
2022-11-02T14:32:04.139Z,7.47
2022-11-02T14:37:36.070Z,12.53
2022-11-02T14:40:17.932Z,12.07
2022-11-02T14:43:12.294Z,7.77
2022-11-02T14:45:53.692Z,6.73
2022-11-02T14:48:21.698Z,7.97
2022-11-02T14:51:01.786Z,6.77
2022-11-02T14:53:33.291Z,9.30
2022-11-02T14:56:02.917Z,7.90
2022-11-02T14:58:35.243Z,7.67
2022-11-02T15:01:05.955Z,10.67
2022-11-02T15:03:37.474Z,11.27
2022-11-02T15:06:08.588Z,12.37
2022-11-02T15:08:39.033Z,8.67
2022-11-02T15:11:46.731Z,7.83
2022-11-02T15:14:52.664Z,8.87
2022-11-02T15:17:59.308Z,8.43
2022-11-02T15:20:32.480Z,5.17
2022-11-02T15:23:24.931Z,6.27
2022-11-02T15:26:00.052Z,8.80
2022-11-02T15:28:33.485Z,12.30
2022-11-02T15:31:05.453Z,9.87
2022-11-02T15:33:37.944Z,8.67
2022-11-02T15:36:09.544Z,7.17
2022-11-02T15:38:40.554Z,9.57
2022-11-02T15:41:22.878Z,7.87
2022-11-02T15:44:19.802Z,8.13
2022-11-02T15:47:03.240Z,7.50
2022-11-02T15:50:01.788Z,10.10
2022-11-02T15:53:16.394Z,6.97
2022-11-02T15:55:47.519Z,4.70
2022-11-02T15:58:25.730Z,7.77
2022-11-02T16:01:16.443Z,8.23
2022-11-02T16:03:48.658Z,11.97
2022-11-02T16:06:24.739Z,14.30
2022-11-02T16:08:52.760Z,12.23
2022-11-02T16:11:22.721Z,7.57
2022-11-02T16:14:08.463Z,7.07
2022-11-02T16:16:47.985Z,7.80
2022-11-02T16:19:20.979Z,13.30
2022-11-02T16:21:50.284Z,6.20
2022-11-02T16:24:18.510Z,10.20
2022-11-02T16:26:47.713Z,6.77
2022-11-02T16:29:26.716Z,9.13
2022-11-02T16:31:56.465Z,11.30
2022-11-02T16:34:28.551Z,10.57
2022-11-02T16:36:57.815Z,8.93
2022-11-02T16:39:30.347Z,10.33
2022-11-02T16:42:01.691Z,9.20
2022-11-02T16:44:31.651Z,9.17
2022-11-02T16:47:11.787Z,10.90
2022-11-02T16:49:59.263Z,8.83
2022-11-02T16:52:32.229Z,10.57
2022-11-02T16:55:00.885Z,11.03
2022-11-02T16:57:31.745Z,12.27
2022-11-02T17:00:02.418Z,11.53
2022-11-02T17:02:35.440Z,6.83
2022-11-02T17:05:06.692Z,12.53
2022-11-02T17:07:38.770Z,11.17
2022-11-02T17:10:08.515Z,11.87
2022-11-02T17:12:39.000Z,12.83
2022-11-02T17:15:16.614Z,13.87
2022-11-02T17:17:46.832Z,13.77
2022-11-02T17:20:24.199Z,10.50
2022-11-02T17:22:58.673Z,10.57
2022-11-02T17:25:29.136Z,14.17
2022-11-02T17:27:59.077Z,14.43
2022-11-02T17:30:49.037Z,10.80
2022-11-02T17:33:30.595Z,12.70
2022-11-02T17:36:05.966Z,13.87
2022-11-02T17:38:34.560Z,11.63
2022-11-02T17:41:23.375Z,14.70
2022-11-02T17:43:50.633Z,10.57
2022-11-02T17:46:18.614Z,11.53
2022-11-02T17:48:47.869Z,12.87
2022-11-02T17:51:16.214Z,9.23
2022-11-02T17:53:44.381Z,12.93
2022-11-02T17:56:12.380Z,7.53
2022-11-02T17:58:40.775Z,14.53
2022-11-02T18:01:10.848Z,23.47
2022-11-02T18:03:39.044Z,16.97
2022-11-02T18:06:08.848Z,17.23
2022-11-02T18:08:57.180Z,15.60
2022-11-02T18:11:26.691Z,16.90
2022-11-02T18:13:54.817Z,16.83
2022-11-02T18:16:22.853Z,12.53
2022-11-02T18:18:50.819Z,17.52
2022-11-02T18:21:20.249Z,14.67
2022-11-02T18:23:48.557Z,14.50
2022-11-02T18:26:16.598Z,12.63
2022-11-02T18:28:44.780Z,11.63
2022-11-02T18:31:12.771Z,10.57
2022-11-02T18:33:42.975Z,13.40
2022-11-02T18:36:12.080Z,10.70
2022-11-02T18:38:42.243Z,9.57
2022-11-02T18:41:25.160Z,9.50
2022-11-02T18:43:53.408Z,11.30
2022-11-02T18:46:24.303Z,15.33
2022-11-02T18:48:54.940Z,9.33
2022-11-02T18:51:23.133Z,11.47
2022-11-02T18:53:57.060Z,8.10
2022-11-02T18:56:25.585Z,11.20
2022-11-02T18:58:55.016Z,15.77
2022-11-02T19:01:25.169Z,16.70
2022-11-02T19:03:54.493Z,14.53
2022-11-02T19:06:40.415Z,19.03
2022-11-02T19:09:24.179Z,24.93
2022-11-02T19:11:56.694Z,25.43
2022-11-02T19:14:26.182Z,22.40
2022-11-02T19:16:54.058Z,19.93
2022-11-02T19:19:25.711Z,16.33
2022-11-02T19:21:54.072Z,16.87
2022-11-02T19:24:23.360Z,18.30
2022-11-02T19:26:51.540Z,15.13
2022-11-02T19:29:19.801Z,12.03
2022-11-02T19:31:48.080Z,15.70
2022-11-02T19:34:16.201Z,11.90
2022-11-02T19:36:44.258Z,16.03
2022-11-02T19:39:12.331Z,13.60
2022-11-02T19:41:49.931Z,17.67
2022-11-02T19:44:24.676Z,14.60
2022-11-02T19:46:52.771Z,13.50
2022-11-02T19:49:20.945Z,12.03
2022-11-02T19:51:48.924Z,9.97
2022-11-02T19:54:17.124Z,12.23
2022-11-02T19:56:46.546Z,10.67
2022-11-02T19:59:14.525Z,11.97
2022-11-02T20:01:43.169Z,13.03
2022-11-02T20:04:14.290Z,11.50
2022-11-02T20:06:45.914Z,11.73
2022-11-02T20:09:18.689Z,9.53
2022-11-02T20:11:48.984Z,11.23
2022-11-02T20:14:19.422Z,10.20
2022-11-02T20:16:58.681Z,15.77
2022-11-02T20:19:32.617Z,34.00
2022-11-02T20:22:00.838Z,40.10
2022-11-02T20:24:29.331Z,40.90
2022-11-02T20:27:02.838Z,31.80
2022-11-02T20:29:30.971Z,23.33
2022-11-02T20:31:58.986Z,24.30
2022-11-02T20:34:27.045Z,22.50
2022-11-02T20:36:55.143Z,26.00
2022-11-02T20:39:23.104Z,32.43
2022-11-02T20:41:55.981Z,38.30
2022-11-02T20:44:25.351Z,32.83
2022-11-02T20:46:53.893Z,40.00
2022-11-02T20:49:48.775Z,33.00
2022-11-02T20:52:14.393Z,24.40
2022-11-02T20:54:42.394Z,18.17
2022-11-02T20:57:10.517Z,16.63
2022-11-02T20:59:39.999Z,21.33
2022-11-02T21:02:10.585Z,15.37
2022-11-02T21:04:38.769Z,15.53
2022-11-02T21:07:07.437Z,16.00
2022-11-02T21:09:37.426Z,14.13
2022-11-02T21:12:23.436Z,13.33
2022-11-02T21:14:52.872Z,13.63
2022-11-02T21:17:20.963Z,10.33
2022-11-02T21:19:54.257Z,13.47
2022-11-02T21:22:26.182Z,8.07
2022-11-02T21:24:54.314Z,8.70
2022-11-02T21:27:22.278Z,9.00
2022-11-02T21:29:52.096Z,13.47
2022-11-02T21:32:24.404Z,12.23
2022-11-02T21:34:55.547Z,8.17
2022-11-02T21:37:23.621Z,10.77
2022-11-02T21:39:51.994Z,10.03
2022-11-02T21:42:20.115Z,9.80
2022-11-02T21:44:50.719Z,11.80
2022-11-02T21:47:18.682Z,11.63
2022-11-02T21:49:50.197Z,10.10
2022-11-02T21:52:21.881Z,9.90
2022-11-02T21:54:49.777Z,8.60
2022-11-02T21:57:20.870Z,15.77
2022-11-02T21:59:48.987Z,11.30
2022-11-02T22:02:17.582Z,12.40
2022-11-02T22:04:53.122Z,9.60
2022-11-02T22:07:21.125Z,10.33
2022-11-02T22:09:49.104Z,9.30
2022-11-02T22:12:34.377Z,6.97
2022-11-02T22:15:03.101Z,9.70
2022-11-02T22:20:20.379Z,10.53
2022-11-02T22:22:48.338Z,6.53
2022-11-02T22:25:16.609Z,9.53
2022-11-02T22:27:44.543Z,8.23
2022-11-02T22:30:13.638Z,9.07
2022-11-02T22:32:41.638Z,9.47
2022-11-02T22:35:13.699Z,8.90
2022-11-02T22:38:00.354Z,11.63
2022-11-02T22:40:30.043Z,12.87
2022-11-02T22:43:00.786Z,9.67
2022-11-02T22:45:28.723Z,9.23
2022-11-02T22:47:56.686Z,14.70
2022-11-02T22:50:26.868Z,11.43
2022-11-02T22:52:57.607Z,9.13
2022-11-02T22:55:27.848Z,9.73
2022-11-02T22:57:59.766Z,9.97
2022-11-02T23:00:28.299Z,11.43
2022-11-02T23:02:56.311Z,11.47
2022-11-02T23:05:24.201Z,12.20
2022-11-02T23:07:52.142Z,10.60
2022-11-02T23:10:35.366Z,9.53
2022-11-02T23:13:03.597Z,12.50
2022-11-02T23:15:31.850Z,11.87
2022-11-02T23:17:59.917Z,10.23
2022-11-02T23:20:26.908Z,12.67
2022-11-02T23:23:16.728Z,11.80
2022-11-02T23:25:54.753Z,8.47
2022-11-02T23:28:44.446Z,9.37
2022-11-02T23:31:30.189Z,9.43
2022-11-02T23:33:58.187Z,12.30
2022-11-02T23:36:25.120Z,8.30
2022-11-02T23:39:10.594Z,9.90
2022-11-02T23:41:41.474Z,7.03
2022-11-02T23:44:12.693Z,10.40
2022-11-02T23:46:41.337Z,11.40
2022-11-02T23:49:09.410Z,7.63
2022-11-02T23:51:54.505Z,9.50
2022-11-02T23:54:39.918Z,7.87
2022-11-02T23:57:09.195Z,9.40
2022-11-02T23:59:37.145Z,8.33
